Hlavní strana
METAR-TAF:

METAR-TAF

Letiště :

Ghat, Libye

zeměpisná šířka: 25-08N, zeměpisná délka: 010-09E, výška: 699 m

METAR: chybějící

Čas: 05:22 (03:22 UTC)

Předpověď počasí

Zpráva byla vytvořena před 22 hodinami a 22 minutami, v 05:00 UTC
Předpověď platná od 03 v 06 UTC do 04 v 06 UTC
Severozápadní vítr 12 kt
Viditelnost 10 km a více
Žádná oblačnost pod 1500 m, nevyskytují se cumulonimby.

TAF: HLGT 030500Z 0306/0406 32012KT CAVOK

Stav a předpovědi počasí z více než 4 000 letišť (zprávy METAR a TAF).

Červené a žluté tečky na mapě představují dostupné meteorologické stanice.

Když kurzor umístíte na tečku, zobrazí se název stanice.

Pak kliknutím zobrazíte stav a předpověď počasí.

Chcete-li změnit mapu, kliknutím na zelené tlačítko se znaménkem +mapu přiblížíte, kliknutím na zelené tlačítko se znaménkem – mapu oddálíte a kliknutím na zelené šipky přejdete na sousední mapy.


METAR-TAF: